Charlottetown, Canada
Current Conditions -  °F | °C
As of 7:00 AM on Saturday 25 Oct 2014 (Local Time) from CYYG Reporting Station
Drizzle Drizzle  
Wind Chill: 50°   Ceiling: 400
Heat Index: 50°   Visibility: 2.5mi
Dew Point: 50°   Wind: 10mph
Humidity: 100%   Direction: 360°N
Pressure: 29.42"   Gusts: 17mph
Location:  46.24°N, 63.13°W
Report Text: CYYG 251000Z 36009G15KT 2 1/2SM -DZ BR OVC004 10/10 A2942 RMK SF8 SLP964
Loading
Personal Weather Stations






























Interactive Weather Map New forecast layout! Learn more

10-Day Weather Forecast

Advertisements
Track Severe Weather on mobile